| time (UTC) | temp C | wind direction | speed KPH | gust KPH | rain 1hr cm | rain 24hr cm | rain mn cm | humidity % | barometer mb |
| 20260503022041 | 10 | 342 | 1.6 | 6.4 | 0.15 | 0.28 | 0.28 | 92 | 1008.6 |
| 20260503021038 | 10 | 346 | 1.6 | 3.2 | 0.15 | 0.23 | 0.23 | 92 | 1008.8 |
| 20260503020035 | 10 | 353 | 1.6 | 3.2 | 0.13 | 0.20 | 0.20 | 91 | 1009.0 |
| 20260503015032 | 10 | 346 | 1.6 | 3.2 | 0.13 | 0.18 | 0.18 | 91 | 1009.0 |
| 20260503014029 | 10 | 351 | 1.6 | 6.4 | 0.13 | 0.18 | 0.18 | 91 | 1009.0 |
| 20260503013027 | 11 | 0 | 0.0 | 3.2 | 0.10 | 0.15 | 0.15 | 90 | 1009.1 |
| 20260503012025 | 11 | 338 | 1.6 | 3.2 | 0.10 | 0.13 | 0.13 | 90 | 1009.4 |
| 20260503011022 | 11 | 338 | 1.6 | 6.4 | 0.05 | 0.10 | 0.10 | 89 | 1009.4 |
| 20260503010059 | 11 | 0 | 0.0 | 3.2 | 0.05 | 0.10 | 0.10 | 88 | 1009.5 |
| 20260503005017 | 11 | 338 | 0.0 | 3.2 | 0.03 | 0.05 | 0.05 | 88 | 1009.4 |
| 20260503004135 | 11 | 293 | 0.0 | 3.2 | 0.03 | 0.05 | 0.05 | 87 | 1009.5 |
| 20260503003113 | 11 | 45 | 0.0 | 6.4 | 0.05 | 0.05 | 0.05 | 87 | 1009.5 |
| 20260503002109 | 11 | 0.0 | 3.2 | 0.03 | 0.03 | 0.03 | 86 | 1009.5 | |
| 20260503001127 | 11 | 0.0 | 3.2 | 0.03 | 0.03 | 0.03 | 85 | 1009.7 | |
| 20260503000124 | 11 | 315 | 0.0 | 3.2 | 0.03 | 0.03 | 0.03 | 84 | 1009.8 |
| 20260502235143 | 11 | 0.0 | 3.2 | 0.03 | 0.03 | 0.03 | 83 | 1009.8 | |
| 20260502234059 | 11 | 0.0 | 0.0 | 0.03 | 0.03 | 0.03 | 83 | 1009.8 | |
| 20260502233057 | 11 | 0.0 | 3.2 | 0.00 | 0.00 | 0.00 | 82 | 1009.9 | |
| 20260502232055 | 12 | 23 | 0.0 | 3.2 | 0.00 | 0.00 | 0.00 | 81 | 1010.0 |
| 20260502231051 | 12 | 0.0 | 3.2 | 0.00 | 0.00 | 0.00 | 81 | 1009.9 | |
| 20260502230048 | 12 | 0.0 | 0.0 | 0.00 | 0.00 | 0.00 | 81 | 1009.8 | |
| 20260502225107 | 12 | 0.0 | 0.0 | 0.00 | 0.00 | 0.00 | 80 | 1009.9 | |
| 20260502224043 | 12 | 0.0 | 3.2 | 0.00 | 0.00 | 0.00 | 80 | 1009.9 | |
| 20260502223051 | 12 | 0.0 | 3.2 | 0.00 | 0.00 | 0.00 | 79 | 1010.0 | |
| 20260502222039 | 12 | 338 | 0.0 | 3.2 | 0.00 | 0.00 | 0.00 | 78 | 1010.0 |
| 20260502221037 | 12 | 0.0 | 3.2 | 0.00 | 0.00 | 0.00 | 79 | 1010.1 | |
| 20260502220054 | 12 | 0 | 0.0 | 3.2 | 0.00 | 0.00 | 0.00 | 79 | 1010.1 |
| 20260502215031 | 12 | 338 | 0.0 | 3.2 | 0.00 | 0.00 | 0.00 | 77 | 1010.2 |
| 20260502214028 | 12 | 338 | 0.0 | 3.2 | 0.00 | 0.00 | 0.00 | 78 | 1010.4 |
| 20260502213026 | 12 | 0.0 | 3.2 | 0.00 | 0.00 | 0.00 | 80 | 1010.4 | |
| 20260502212023 | 12 | 0.0 | 3.2 | 0.00 | 0.00 | 0.00 | 83 | 1010.4 | |
| 20260502211021 | 12 | 338 | 0.0 | 3.2 | 0.00 | 0.00 | 0.00 | 84 | 1010.5 |
| 20260502210038 | 12 | 338 | 0.0 | 3.2 | 0.00 | 0.00 | 0.00 | 84 | 1010.7 |
| 20260502205016 | 12 | 0.0 | 3.2 | 0.00 | 0.00 | 0.00 | 83 | 1010.6 | |
| 20260502204133 | 12 | 338 | 0.0 | 3.2 | 0.00 | 0.00 | 0.00 | 83 | 1010.7 |
| 20260502203111 | 12 | 0.0 | 0.0 | 0.00 | 0.00 | 0.00 | 83 | 1010.7 | |
| 20260502202109 | 12 | 0 | 0.0 | 3.2 | 0.00 | 0.00 | 0.00 | 82 | 1010.7 |
| 20260502201106 | 12 | 0.0 | 0.0 | 0.00 | 0.00 | 0.00 | 82 | 1010.8 | |
| 20260502200104 | 13 | 0.0 | 0.0 | 0.00 | 0.00 | 0.00 | 81 | 1010.7 | |
| 20260502195140 | 12 | 0 | 1.6 | 3.2 | 0.00 | 0.00 | 0.00 | 79 | 1010.5 |
| 20260502194059 | 12 | 0 | 0.0 | 3.2 | 0.00 | 0.00 | 0.00 | 78 | 1010.5 |
| 20260502193055 | 13 | 0 | 0.0 | 3.2 | 0.00 | 0.00 | 0.00 | 79 | 1010.6 |
| 20260502192054 | 13 | 338 | 0.0 | 3.2 | 0.00 | 0.00 | 0.00 | 78 | 1010.6 |
| 20260502191130 | 13 | 338 | 0.0 | 3.2 | 0.00 | 0.00 | 0.00 | 76 | 1010.7 |
| 20260502190108 | 13 | 356 | 1.6 | 3.2 | 0.00 | 0.00 | 0.00 | 73 | 1010.7 |
| 20260502185105 | 13 | 0.0 | 0.0 | 0.00 | 0.00 | 0.00 | 72 | 1010.9 | |
| 20260502184042 | 13 | 0.0 | 0.0 | 0.00 | 0.00 | 0.00 | 71 | 1011.0 | |
| 20260502183040 | 13 | 0.0 | 0.0 | 0.00 | 0.00 | 0.00 | 71 | 1011.1 | |
| 20260502182037 | 13 | 90 | 0.0 | 3.2 | 0.00 | 0.00 | 0.00 | 71 | 1011.0 |
| 20260502181035 | 14 | 0.0 | 3.2 | 0.00 | 0.00 | 0.00 | 69 | 1011.1 | |
| 20260502164111 | 15 | 0 | 0.0 | 3.2 | 0.00 | 0.23 | 0.00 | 63 | 1011.4 |
| 20260502163109 | 15 | 345 | 0.0 | 3.2 | 0.00 | 0.23 | 0.00 | 62 | 1011.4 |
| 20260502162128 | 15 | 344 | 1.6 | 6.4 | 0.00 | 0.23 | 0.00 | 62 | 1011.3 |
| 20260502161104 | 15 | 0 | 0.0 | 3.2 | 0.00 | 0.23 | 0.00 | 64 | 1011.5 |
| 20260502152052 | 15 | 248 | 0.0 | 3.2 | 0.00 | 0.28 | 0.00 | 64 | 1012.4 |
| 20260502151108 | 17 | 68 | 0.0 | 3.2 | 0.00 | 0.28 | 0.00 | 60 | 1012.6 |
| 20260502123147 | 14 | 0.0 | 3.2 | 0.00 | 0.28 | 0.00 | 73 | 1013.1 | |
| 20260502122105 | 15 | 90 | 0.0 | 3.2 | 0.00 | 0.28 | 0.00 | 72 | 1012.8 |
| 20260502121102 | 15 | 248 | 0.0 | 3.2 | 0.00 | 0.28 | 0.00 | 73 | 1013.0 |
| 20260502115057 | 15 | 270 | 0.0 | 3.2 | 0.00 | 0.28 | 0.00 | 72 | 1012.5 |
| 20260502114056 | 15 | 236 | 0.0 | 3.2 | 0.00 | 0.28 | 0.00 | 72 | 1012.6 |
| 20260502113053 | 15 | 270 | 0.0 | 3.2 | 0.00 | 0.28 | 0.00 | 73 | 1013.3 |
| 20260502112049 | 14 | 0.0 | 6.4 | 0.00 | 0.28 | 0.00 | 72 | 1013.5 | |
| 20260502111048 | 14 | 270 | 0.0 | 3.2 | 0.00 | 0.28 | 0.00 | 74 | 1014.1 |
| 20260502110044 | 14 | 293 | 0.0 | 3.2 | 0.00 | 0.28 | 0.00 | 77 | 1014.1 |
| 20260502105041 | 13 | 293 | 0.0 | 3.2 | 0.00 | 0.28 | 0.00 | 79 | 1014.4 |
| 20260502104040 | 12 | 0.0 | 3.2 | 0.00 | 0.28 | 0.00 | 81 | 1014.5 | |
| 20260502103037 | 12 | 0.0 | 3.2 | 0.00 | 0.28 | 0.00 | 80 | 1014.4 | |
| 20260502102034 | 13 | 293 | 0.0 | 3.2 | 0.00 | 0.28 | 0.00 | 78 | 1014.3 |
| 20260502101031 | 13 | 236 | 0.0 | 3.2 | 0.00 | 0.28 | 0.00 | 78 | 1014.2 |
| 20260502091017 | 12 | 0.0 | 3.2 | 0.00 | 0.28 | 0.00 | 82 | 1014.6 | |
| 20260502090155 | 12 | 0.0 | 3.2 | 0.00 | 0.28 | 0.00 | 83 | 1014.7 | |
| 20260502071047 | 11 | 0.0 | 3.2 | 0.00 | 0.28 | 0.00 | 91 | 1014.5 | |
| 20260502070042 | 11 | 0.0 | 3.2 | 0.00 | 0.28 | 0.00 | 91 | 1014.4 | |
| 20260502065040 | 10 | 0.0 | 3.2 | 0.00 | 0.28 | 0.00 | 92 | 1014.4 | |
| 20260502064037 | 10 | 0.0 | 3.2 | 0.00 | 0.28 | 0.00 | 92 | 1014.5 | |
| 20260502063035 | 10 | 0.0 | 0.0 | 0.00 | 0.28 | 0.00 | 92 | 1014.4 | |
| 20260502062052 | 10 | 0.0 | 3.2 | 0.00 | 0.28 | 0.00 | 93 | 1014.3 | |
| 20260502061029 | 10 | 0.0 | 3.2 | 0.00 | 0.28 | 0.00 | 93 | 1014.3 | |
| 20260502060027 | 10 | 0.0 | 0.0 | 0.00 | 0.28 | 0.00 | 93 | 1014.2 | |
| 20260502055024 | 10 | 0.0 | 0.0 | 0.00 | 0.28 | 0.00 | 93 | 1014.4 | |
| 20260502054022 | 10 | 0.0 | 3.2 | 0.00 | 0.28 | 0.00 | 93 | 1014.3 | |
| 20260502053019 | 10 | 0.0 | 3.2 | 0.00 | 0.28 | 0.00 | 93 | 1014.3 | |
| 20260502052017 | 10 | 0.0 | 3.2 | 0.00 | 0.28 | 0.00 | 93 | 1014.3 | |
| 20260502051114 | 10 | 270 | 0.0 | 3.2 | 0.00 | 0.28 | 0.00 | 94 | 1014.3 |
| 20260502050113 | 10 | 259 | 0.0 | 6.4 | 0.00 | 0.28 | 0.00 | 94 | 1014.5 |
| 20260502045109 | 10 | 0.0 | 3.2 | 0.00 | 0.28 | 0.00 | 94 | 1014.5 | |
| 20260502044106 | 10 | 294 | 0.0 | 3.2 | 0.00 | 0.28 | 0.00 | 94 | 1014.3 |
| 20260502043104 | 10 | 293 | 0.0 | 6.4 | 0.00 | 0.28 | 0.00 | 94 | 1014.4 |
| 20260502042100 | 10 | 0.0 | 3.2 | 0.00 | 0.28 | 0.00 | 94 | 1014.3 | |
| 20260502041118 | 10 | 0.0 | 3.2 | 0.00 | 0.28 | 0.00 | 94 | 1014.5 | |
| 20260502040117 | 10 | 0.0 | 3.2 | 0.00 | 0.28 | 0.00 | 94 | 1014.4 | |
| 20260502035113 | 10 | 0.0 | 3.2 | 0.00 | 0.28 | 0.00 | 95 | 1014.6 | |
| 20260502034050 | 10 | 0.0 | 3.2 | 0.00 | 0.28 | 0.00 | 95 | 1014.6 | |
| 20260502033048 | 10 | 0.0 | 3.2 | 0.00 | 0.28 | 0.00 | 95 | 1014.8 | |
| 20260502032045 | 10 | 0.0 | 3.2 | 0.00 | 0.28 | 0.00 | 95 | 1014.7 | |
| 20260502031043 | 10 | 293 | 0.0 | 3.2 | 0.00 | 0.28 | 0.00 | 95 | 1014.6 |
| 20260502030100 | 10 | 0.0 | 3.2 | 0.00 | 0.28 | 0.00 | 95 | 1014.9 | |
| 20260502025058 | 10 | 0.0 | 3.2 | 0.00 | 0.28 | 0.00 | 95 | 1014.8 | |
| 20260502024035 | 10 | 0.0 | 3.2 | 0.00 | 0.28 | 0.00 | 95 | 1014.9 | |
| 20260502023033 | 10 | 0.0 | 3.2 | 0.00 | 0.28 | 0.00 | 95 | 1015.1 |